Time;durP1;ratioP1;P1;durP2;ratioP2;P2;SDS_P1;SDS_P2;PMS_P1;PMS_P2;Temp;Humidity;BMP_temperature;BMP_pressure;BME280_temperature;BME280_humidity;BME280_pressure;Samples;Min_cycle;Max_cycle;Signal;HPM_P1;HPM_P2
2021/12/14 00:00:28;;;;;;;5.10;2.80;;;-0.30;99.90;;;;;;2089185;28;20235;-69
2021/12/14 00:01:42;;;;;;;5.50;2.85;;;-0.30;99.90;;;;;;2089795;28;20171;-69
2021/12/14 00:02:44;;;;;;;7.22;3.40;;;-0.30;99.90;;;;;;2089182;28;20179;-69
2021/12/14 00:03:55;;;;;;;6.80;2.83;;;-0.40;99.90;;;;;;2072992;28;20197;-68
2021/12/14 00:04:59;;;;;;;5.75;3.30;;;-0.30;99.90;;;;;;2081955;28;20280;-69
2021/12/14 00:06:01;;;;;;;7.63;2.78;;;-0.40;99.90;;;;;;2089573;28;20192;-69
2021/12/14 00:07:14;;;;;;;7.15;2.55;;;-0.40;99.90;;;;;;2089401;28;20743;-69
2021/12/14 00:08:16;;;;;;;3.47;2.15;;;-0.40;99.90;;;;;;2088971;28;20285;-69
2021/12/14 00:09:30;;;;;;;5.57;2.60;;;-0.40;99.90;;;;;;2089055;28;20183;-69
2021/12/14 00:12:54;;;;;;;6.25;2.53;;;-0.40;99.90;;;;;;2089098;28;20164;-70
2021/12/14 00:14:11;;;;;;;7.22;2.80;;;-0.40;99.90;;;;;;2089064;28;20200;-68
2021/12/14 00:15:16;;;;;;;8.10;2.83;;;-0.40;99.90;;;;;;2089135;28;20199;-69
2021/12/14 00:16:17;;;;;;;5.28;2.55;;;-0.40;99.90;;;;;;2088963;28;20836;-70
2021/12/14 00:17:26;;;;;;;4.07;2.10;;;-0.40;99.90;;;;;;2088929;28;20172;-73
2021/12/14 00:18:27;;;;;;;6.78;3.10;;;-0.40;99.90;;;;;;2089524;28;20931;-71
2021/12/14 00:19:29;;;;;;;7.30;2.90;;;-0.40;99.90;;;;;;2088937;28;20204;-70
2021/12/14 00:20:39;;;;;;;8.50;2.95;;;-0.40;99.90;;;;;;2089073;28;20184;-70
2021/12/14 00:21:43;;;;;;;5.25;2.35;;;-0.50;99.90;;;;;;2089439;28;20189;-70
2021/12/14 00:24:14;;;;;;;4.10;2.33;;;-0.50;99.90;;;;;;2089694;28;20183;-70
2021/12/14 00:25:15;;;;;;;2.90;2.08;;;-0.50;99.90;;;;;;2089346;28;20247;-70
2021/12/14 00:26:16;;;;;;;2.90;1.90;;;-0.50;99.90;;;;;;2088972;28;20552;-70
2021/12/14 00:27:18;;;;;;;4.63;2.50;;;-0.60;99.90;;;;;;2088861;28;20176;-70
2021/12/14 00:28:26;;;;;;;5.03;2.42;;;-0.60;99.90;;;;;;2089523;28;20200;-70
2021/12/14 00:29:34;;;;;;;3.83;2.25;;;-0.60;99.90;;;;;;2088851;28;20168;-70
2021/12/14 00:30:36;;;;;;;8.48;3.17;;;-0.60;99.90;;;;;;2088983;28;20173;-70
2021/12/14 00:31:37;;;;;;;5.22;2.63;;;-0.60;99.90;;;;;;2089509;28;20564;-70
2021/12/14 00:32:38;;;;;;;6.13;3.20;;;-0.60;99.90;;;;;;2089589;28;20188;-70
2021/12/14 00:33:40;;;;;;;3.53;2.13;;;-0.60;99.90;;;;;;2090381;28;20176;-70
2021/12/14 00:34:43;;;;;;;7.05;2.50;;;-0.60;99.90;;;;;;2090519;28;20226;-70
2021/12/14 00:35:45;;;;;;;4.68;2.42;;;-0.60;99.90;;;;;;2090710;28;20222;-70
2021/12/14 00:36:46;;;;;;;5.75;2.72;;;-0.60;99.90;;;;;;2082842;28;20248;-70
2021/12/14 00:37:52;;;;;;;4.10;2.30;;;-0.60;99.90;;;;;;2090387;28;20298;-70
2021/12/14 00:38:56;;;;;;;4.85;2.55;;;-0.60;99.90;;;;;;2090677;28;20160;-70
2021/12/14 00:40:01;;;;;;;4.07;2.15;;;-0.70;99.90;;;;;;2090735;28;20176;-70
2021/12/14 00:41:11;;;;;;;3.75;1.67;;;-0.70;99.90;;;;;;2090830;28;20234;-70
2021/12/14 00:42:12;;;;;;;2.05;1.50;;;-0.70;99.90;;;;;;2090756;28;20171;-70
2021/12/14 00:43:13;;;;;;;2.97;1.80;;;-0.70;99.90;;;;;;2090677;28;20180;-70
2021/12/14 00:44:14;;;;;;;4.70;2.00;;;-0.70;99.90;;;;;;2090513;28;20181;-70
2021/12/14 00:45:17;;;;;;;3.13;1.80;;;-0.80;99.90;;;;;;2091054;28;20546;-70
2021/12/14 00:46:19;;;;;;;2.45;1.63;;;-0.80;99.90;;;;;;2091162;28;20179;-70
2021/12/14 00:47:20;;;;;;;4.03;1.92;;;-0.80;99.90;;;;;;2091184;28;20271;-70
2021/12/14 00:48:21;;;;;;;3.33;2.03;;;-0.80;99.90;;;;;;2090479;28;20199;-69
2021/12/14 00:49:22;;;;;;;3.05;1.40;;;-0.80;99.90;;;;;;2090607;28;20219;-70
2021/12/14 00:50:27;;;;;;;1.95;1.48;;;-0.80;99.90;;;;;;2090366;28;20232;-70
2021/12/14 00:51:28;;;;;;;2.53;1.35;;;-0.80;99.90;;;;;;2090526;28;20195;-70
2021/12/14 00:52:29;;;;;;;2.72;1.60;;;-0.80;99.90;;;;;;2082308;28;20212;-70
2021/12/14 00:53:31;;;;;;;5.73;1.83;;;-0.80;99.90;;;;;;2090539;28;20195;-70
2021/12/14 00:54:32;;;;;;;2.88;1.60;;;-0.70;99.90;;;;;;2090995;28;20302;-70
2021/12/14 00:55:40;;;;;;;3.10;1.63;;;-0.80;99.90;;;;;;2091221;28;20180;-69
2021/12/14 00:56:41;;;;;;;4.47;1.52;;;-0.80;99.90;;;;;;2091159;28;20543;-69
2021/12/14 00:57:42;;;;;;;2.10;1.60;;;-0.80;99.90;;;;;;2090879;28;20185;-69
2021/12/14 00:58:44;;;;;;;2.90;1.20;;;-0.80;99.90;;;;;;2091078;28;20186;-69
2021/12/14 00:59:45;;;;;;;2.60;1.33;;;-0.80;99.90;;;;;;2090923;28;20679;-70
2021/12/14 01:00:58;;;;;;;3.90;1.50;;;-0.80;99.90;;;;;;2090883;28;20192;-70
2021/12/14 01:02:14;;;;;;;1.00;0.85;;;-0.80;99.90;;;;;;2091167;28;20629;-69
2021/12/14 01:03:15;;;;;;;1.60;1.10;;;-0.80;99.90;;;;;;2090430;28;20247;-69
2021/12/14 01:04:26;;;;;;;1.67;1.10;;;-0.80;99.90;;;;;;2090301;28;20738;-70
2021/12/14 01:05:40;;;;;;;1.48;1.17;;;-0.80;99.90;;;;;;2090401;28;20188;-70
2021/12/14 01:06:45;;;;;;;1.73;1.05;;;-0.80;99.90;;;;;;2090941;28;20540;-70
2021/12/14 01:07:46;;;;;;;1.98;1.30;;;-0.80;99.90;;;;;;2090975;28;20188;-70
2021/12/14 01:08:49;;;;;;;2.40;1.30;;;-0.70;99.90;;;;;;2090287;28;20187;-70
2021/12/14 01:09:56;;;;;;;1.73;1.15;;;-0.70;99.90;;;;;;2090525;28;20235;-70
2021/12/14 01:11:06;;;;;;;1.80;1.30;;;-0.70;99.90;;;;;;2091057;28;20176;-69
2021/12/14 01:12:18;;;;;;;2.05;1.30;;;-0.70;99.90;;;;;;2090939;28;20192;-70
2021/12/14 01:13:28;;;;;;;1.80;1.20;;;-0.70;99.90;;;;;;2090840;28;20212;-70
2021/12/14 01:14:45;;;;;;;1.92;1.30;;;-0.70;99.90;;;;;;2090928;28;20192;-70
2021/12/14 01:16:02;;;;;;;3.53;1.30;;;-0.70;99.90;;;;;;2090920;28;20171;-71
2021/12/14 01:17:14;;;;;;;2.92;1.30;;;-0.70;99.90;;;;;;2089928;28;20181;-70
2021/12/14 01:19:54;;;;;;;1.85;1.10;;;-0.70;99.90;;;;;;2085685;28;20207;-70
2021/12/14 01:21:09;;;;;;;2.00;1.25;;;-0.80;99.90;;;;;;2087252;28;20586;-70
2021/12/14 01:22:33;;;;;;;1.42;1.25;;;-0.80;99.90;;;;;;2090422;28;20168;-70
2021/12/14 01:23:34;;;;;;;2.35;1.20;;;-0.80;99.90;;;;;;2090824;28;20598;-70
2021/12/14 01:25:52;;;;;;;3.03;1.40;;;-0.80;99.90;;;;;;2090950;28;20180;-70
2021/12/14 01:26:53;;;;;;;3.05;1.70;;;-0.80;99.90;;;;;;2090757;28;20191;-70
2021/12/14 01:28:02;;;;;;;2.73;1.53;;;-0.80;99.90;;;;;;2098062;28;20225;-70
2021/12/14 01:29:08;;;;;;;1.38;1.00;;;-0.80;99.90;;;;;;2097389;28;20679;-70
2021/12/14 01:30:24;;;;;;;1.15;0.80;;;-0.80;99.90;;;;;;2090158;28;20249;-70
2021/12/14 01:31:37;;;;;;;1.60;0.90;;;-0.80;99.90;;;;;;2083917;28;20169;-70
2021/12/14 01:32:42;;;;;;;1.58;1.00;;;-0.80;99.90;;;;;;2090247;28;20245;-70
2021/12/14 01:33:49;;;;;;;1.17;0.98;;;-0.80;99.90;;;;;;2090695;28;20180;-70
2021/12/14 01:34:50;;;;;;;1.10;0.90;;;-0.80;99.90;;;;;;2090566;28;20165;-69
2021/12/14 01:35:52;;;;;;;1.10;1.00;;;-0.80;99.90;;;;;;2090142;28;20275;-70
2021/12/14 01:36:57;;;;;;;2.47;1.40;;;-0.80;99.90;;;;;;2090065;28;20663;-70
2021/12/14 01:40:54;;;;;;;1.38;0.98;;;-0.80;99.90;;;;;;2090728;28;20241;-70
2021/12/14 01:42:38;;;;;;;1.98;1.10;;;-0.80;99.90;;;;;;2090131;28;20161;-69
2021/12/14 01:43:47;;;;;;;3.58;1.00;;;-0.80;99.90;;;;;;2081269;28;20196;-70
2021/12/14 01:45:01;;;;;;;1.90;1.00;;;-0.80;99.90;;;;;;2072181;28;20185;-70
2021/12/14 01:46:36;;;;;;;1.38;0.88;;;-0.80;99.90;;;;;;2074958;28;20254;-69
2021/12/14 01:47:47;;;;;;;0.82;0.70;;;-0.80;99.90;;;;;;2080567;28;20216;-70
2021/12/14 01:48:50;;;;;;;1.40;0.80;;;-0.70;99.90;;;;;;2080915;28;20188;-70
2021/12/14 01:49:51;;;;;;;1.25;0.70;;;-0.70;99.90;;;;;;2090020;28;20227;-69
2021/12/14 01:50:59;;;;;;;0.60;0.50;;;-0.70;99.90;;;;;;2081717;28;20809;-70
2021/12/14 01:52:06;;;;;;;0.93;0.80;;;-0.60;99.90;;;;;;2090096;28;20173;-70
2021/12/14 01:53:08;;;;;;;0.80;0.80;;;-0.60;99.90;;;;;;2089981;28;20240;-70
2021/12/14 01:54:13;;;;;;;0.98;0.70;;;-0.60;99.90;;;;;;2081683;28;20213;-70
2021/12/14 01:55:21;;;;;;;2.38;0.70;;;-0.60;99.90;;;;;;2089795;28;20223;-70
2021/12/14 01:56:27;;;;;;;3.92;0.73;;;-0.60;99.90;;;;;;2090623;28;20188;-70
2021/12/14 01:57:31;;;;;;;1.05;0.75;;;-0.50;99.90;;;;;;2090431;28;20165;-70
2021/12/14 01:58:40;;;;;;;1.90;0.90;;;-0.60;99.90;;;;;;2089823;28;20212;-70
2021/12/14 01:59:45;;;;;;;1.00;0.63;;;-0.60;99.90;;;;;;2089950;28;20226;-70
2021/12/14 02:00:59;;;;;;;1.70;1.50;;;-0.60;99.90;;;;;;2090456;28;20199;-70
2021/12/14 02:02:20;;;;;;;0.70;0.60;;;-0.60;99.90;;;;;;2089909;28;20258;-70
2021/12/14 02:03:53;;;;;;;1.23;0.90;;;-0.60;99.90;;;;;;2090000;28;20161;-70
2021/12/14 02:04:54;;;;;;;0.80;0.60;;;-0.60;99.90;;;;;;2090355;28;20226;-70
2021/12/14 02:05:55;;;;;;;1.30;0.70;;;-0.60;99.90;;;;;;2089633;28;21080;-70
2021/12/14 02:07:04;;;;;;;0.65;0.65;;;-0.60;99.90;;;;;;2089706;28;20169;-70
2021/12/14 02:08:29;;;;;;;0.60;0.50;;;-0.70;99.90;;;;;;2089669;28;20223;-70
2021/12/14 02:09:34;;;;;;;7.90;1.10;;;-0.60;99.90;;;;;;2089872;28;20195;-70
2021/12/14 02:10:37;;;;;;;8.82;0.68;;;-0.70;99.90;;;;;;2090508;28;20557;-70
2021/12/14 02:11:46;;;;;;;1.10;0.70;;;-0.60;99.90;;;;;;2090325;28;20184;-70
2021/12/14 02:12:46;;;;;;;1.05;0.63;;;-0.60;99.90;;;;;;2090459;28;20267;-71
2021/12/14 02:13:48;;;;;;;0.93;0.60;;;-0.60;99.90;;;;;;2089834;28;20185;-70
2021/12/14 02:14:50;;;;;;;2.45;0.85;;;-0.60;99.90;;;;;;2081479;28;20197;-70
2021/12/14 02:15:51;;;;;;;1.90;0.70;;;-0.50;99.90;;;;;;2081653;28;20260;-70
2021/12/14 02:16:57;;;;;;;1.27;0.80;;;-0.60;99.90;;;;;;2081644;28;20196;-70
2021/12/14 02:18:01;;;;;;;3.00;0.77;;;-0.60;99.90;;;;;;2089613;28;20663;-70
2021/12/14 02:19:21;;;;;;;3.10;0.85;;;-0.60;99.90;;;;;;2090361;28;20659;-70
2021/12/14 02:20:31;;;;;;;6.20;1.42;;;-0.60;99.90;;;;;;2089657;28;20634;-70
2021/12/14 02:21:33;;;;;;;3.85;0.80;;;-0.60;99.90;;;;;;2089937;28;20617;-70
2021/12/14 02:22:34;;;;;;;2.30;0.70;;;-0.60;99.90;;;;;;2089724;28;20250;-72
2021/12/14 02:23:53;;;;;;;1.27;0.80;;;-0.60;99.90;;;;;;2081684;28;20288;-70
2021/12/14 02:24:53;;;;;;;13.52;1.30;;;-0.60;99.90;;;;;;2089802;28;20680;-70
2021/12/14 02:25:59;;;;;;;7.43;1.70;;;-0.60;99.90;;;;;;2089576;28;20185;-70
2021/12/14 02:27:00;;;;;;;5.07;0.90;;;-0.60;99.90;;;;;;2089696;28;20169;-70
2021/12/14 02:28:07;;;;;;;0.73;0.60;;;-0.60;99.90;;;;;;2089584;28;20199;-70
2021/12/14 02:29:21;;;;;;;1.10;0.50;;;-0.60;99.90;;;;;;2082282;28;20165;-70
2021/12/14 02:30:28;;;;;;;0.90;0.50;;;-0.70;99.90;;;;;;2089791;28;20168;-70
2021/12/14 02:31:29;;;;;;;0.70;0.57;;;-0.70;99.90;;;;;;2090260;28;20168;-70
2021/12/14 02:32:30;;;;;;;0.40;0.40;;;-0.70;99.90;;;;;;2090289;28;20187;-70
2021/12/14 02:33:36;;;;;;;0.57;0.50;;;-0.70;99.90;;;;;;2089607;28;20809;-70
2021/12/14 02:34:51;;;;;;;0.88;0.50;;;-0.60;99.90;;;;;;2081940;28;20195;-70
2021/12/14 02:35:52;;;;;;;1.08;0.60;;;-0.70;99.90;;;;;;2083438;28;20168;-70
2021/12/14 02:36:53;;;;;;;0.60;0.60;;;-0.60;99.90;;;;;;2089417;28;20199;-70
2021/12/14 02:38:03;;;;;;;0.40;0.40;;;-0.60;99.90;;;;;;2090072;28;20203;-70
2021/12/14 02:39:22;;;;;;;2.60;0.60;;;-0.60;99.90;;;;;;2089445;28;20192;-73
2021/12/14 02:40:53;;;;;;;0.50;0.50;;;-0.60;99.90;;;;;;2083668;28;20711;-70
2021/12/14 02:41:52;;;;;;;0.50;0.50;;;-0.60;99.90;;;;;;2089712;28;20191;-70
2021/12/14 02:42:56;;;;;;;2.03;0.57;;;-0.50;99.90;;;;;;2090155;28;20632;-70
2021/12/14 02:43:59;;;;;;;1.23;0.55;;;-0.60;99.90;;;;;;2089565;28;20673;-70
2021/12/14 02:45:00;;;;;;;0.93;0.70;;;-0.50;99.90;;;;;;2081581;28;20181;-70
2021/12/14 02:46:17;;;;;;;0.70;0.60;;;-0.50;99.90;;;;;;2081462;28;20182;-70
2021/12/14 02:47:20;;;;;;;0.50;0.50;;;-0.40;99.90;;;;;;2089719;28;20402;-70
2021/12/14 02:48:24;;;;;;;0.73;0.60;;;-0.50;99.90;;;;;;2090298;28;20581;-70
2021/12/14 02:49:29;;;;;;;1.05;0.88;;;-0.50;99.90;;;;;;2089623;28;20676;-70
2021/12/14 02:50:30;;;;;;;0.82;0.55;;;-0.50;99.90;;;;;;2082273;28;20248;-70
2021/12/14 02:51:44;;;;;;;0.87;0.63;;;-0.50;99.90;;;;;;2081293;28;20747;-70
2021/12/14 02:52:45;;;;;;;2.22;0.70;;;-0.50;99.90;;;;;;2083150;28;20169;-70
2021/12/14 02:53:50;;;;;;;0.63;0.50;;;-0.50;99.90;;;;;;2081218;28;20568;-70
2021/12/14 02:54:56;;;;;;;1.58;0.63;;;-0.60;99.90;;;;;;2081967;28;20177;-70
2021/12/14 02:55:57;;;;;;;0.90;0.60;;;-0.60;99.90;;;;;;2089327;28;20669;-70
2021/12/14 02:57:10;;;;;;;0.67;0.60;;;-0.60;99.90;;;;;;2089948;28;20187;-70
2021/12/14 02:58:11;;;;;;;0.40;0.40;;;-0.60;99.90;;;;;;2089335;28;20188;-70
2021/12/14 02:59:21;;;;;;;1.83;0.60;;;-0.60;99.90;;;;;;2081420;28;20185;-70
2021/12/14 03:00:35;;;;;;;2.13;0.60;;;-0.60;99.90;;;;;;2082409;28;20165;-70
2021/12/14 03:01:37;;;;;;;1.20;0.80;;;-0.60;99.90;;;;;;2089527;28;20177;-70
2021/12/14 03:02:38;;;;;;;1.10;0.60;;;-0.60;99.90;;;;;;2089462;28;20172;-70
2021/12/14 03:03:39;;;;;;;1.20;0.50;;;-0.60;99.90;;;;;;2081105;28;20646;-70
2021/12/14 03:04:47;;;;;;;1.42;0.60;;;-0.60;99.90;;;;;;2080939;28;20191;-70
2021/12/14 03:05:49;;;;;;;1.05;0.50;;;-0.60;99.90;;;;;;2089357;28;20188;-70
2021/12/14 03:06:57;;;;;;;8.77;0.70;;;-0.60;99.90;;;;;;2090026;28;20250;-70
2021/12/14 03:08:09;;;;;;;1.17;0.60;;;-0.60;99.90;;;;;;2089335;28;20184;-70
2021/12/14 03:09:33;;;;;;;1.98;0.80;;;-0.50;99.90;;;;;;2082614;28;20165;-70
2021/12/14 03:10:52;;;;;;;1.23;0.70;;;-0.50;99.90;;;;;;2089551;28;20187;-70
2021/12/14 03:11:53;;;;;;;1.98;0.73;;;-0.50;99.90;;;;;;2089402;28;20171;-70
2021/12/14 03:12:54;;;;;;;7.70;1.30;;;-0.60;99.90;;;;;;2089456;28;20184;-70
2021/12/14 03:13:55;;;;;;;7.78;1.33;;;-0.60;99.90;;;;;;2089696;28;20237;-70
2021/12/14 03:15:18;;;;;;;10.25;3.15;;;-0.60;99.90;;;;;;2089770;28;20186;-70
2021/12/14 03:16:31;;;;;;;25.83;4.57;;;-0.60;99.90;;;;;;2089419;28;20180;-70
2021/12/14 03:17:31;;;;;;;41.38;4.72;;;-0.60;99.90;;;;;;2089909;28;20172;-70
2021/12/14 03:18:38;;;;;;;16.50;3.53;;;-0.60;99.90;;;;;;2089794;28;20199;-71
2021/12/14 03:19:39;;;;;;;9.40;3.25;;;-0.60;99.90;;;;;;2089955;28;20168;-70
2021/12/14 03:20:45;;;;;;;10.37;2.40;;;-0.60;99.90;;;;;;2089853;28;20173;-70
2021/12/14 03:21:46;;;;;;;5.28;1.98;;;-0.60;99.90;;;;;;2089872;28;20251;-70
2021/12/14 03:23:19;;;;;;;18.60;3.23;;;-0.60;99.90;;;;;;2089803;28;20835;-70
2021/12/14 03:24:21;;;;;;;20.38;2.85;;;-0.60;99.90;;;;;;2089850;28;20184;-70
2021/12/14 03:25:22;;;;;;;21.88;3.17;;;-0.60;99.90;;;;;;2089646;28;20196;-70
2021/12/14 03:26:27;;;;;;;10.10;2.33;;;-0.60;99.90;;;;;;2089837;28;20214;-70
2021/12/14 03:27:28;;;;;;;5.03;1.80;;;-0.60;99.90;;;;;;2089732;28;20195;-70
2021/12/14 03:28:30;;;;;;;5.53;2.10;;;-0.60;99.90;;;;;;2089161;28;20208;-70
2021/12/14 03:29:32;;;;;;;16.52;2.58;;;-0.60;99.90;;;;;;2089272;28;20433;-70
2021/12/14 03:30:41;;;;;;;2.88;1.58;;;-0.50;99.90;;;;;;2089677;28;20258;-70
2021/12/14 03:31:46;;;;;;;21.83;3.72;;;-0.60;99.90;;;;;;2089848;28;20187;-70
2021/12/14 03:32:47;;;;;;;7.28;2.10;;;-0.60;99.90;;;;;;2089691;28;20181;-70
2021/12/14 03:34:00;;;;;;;8.77;2.23;;;-0.60;99.90;;;;;;2089753;28;20211;-70
2021/12/14 03:35:00;;;;;;;5.07;2.22;;;-0.60;99.90;;;;;;2089721;28;20183;-71
2021/12/14 03:36:28;;;;;;;6.73;1.97;;;-0.60;99.90;;;;;;2089656;28;20208;-70
2021/12/14 03:37:29;;;;;;;3.65;1.73;;;-0.60;99.90;;;;;;2089212;28;20235;-70
2021/12/14 03:38:42;;;;;;;6.20;2.23;;;-0.60;99.90;;;;;;2089074;28;20243;-70
2021/12/14 03:39:50;;;;;;;89.50;4.53;;;-0.60;99.90;;;;;;2089897;28;20194;-70
2021/12/14 03:41:10;;;;;;;11.02;1.67;;;-0.50;99.90;;;;;;2089028;28;20259;-70
2021/12/14 03:42:25;;;;;;;48.22;3.63;;;-0.50;99.90;;;;;;2089355;28;20206;-70
2021/12/14 03:43:28;;;;;;;54.15;3.40;;;-0.50;99.90;;;;;;2089036;28;20199;-70
2021/12/14 03:44:38;;;;;;;6.25;1.50;;;-0.50;99.90;;;;;;2081535;28;20177;-70
2021/12/14 03:45:39;;;;;;;24.25;3.55;;;-0.50;99.90;;;;;;2089088;28;20711;-70
2021/12/14 03:47:08;;;;;;;3.92;1.30;;;-0.50;99.90;;;;;;2089612;28;20180;-70
2021/12/14 03:48:09;;;;;;;3.00;1.17;;;-0.50;99.90;;;;;;2088414;28;20289;-70
2021/12/14 03:49:09;;;;;;;2.27;1.20;;;-0.50;99.90;;;;;;2089804;28;20199;-70
2021/12/14 03:50:23;;;;;;;2.30;1.20;;;-0.50;99.90;;;;;;2090340;28;20195;-70
2021/12/14 03:51:24;;;;;;;4.22;1.08;;;-0.40;99.90;;;;;;2088951;28;20244;-71
2021/12/14 03:52:36;;;;;;;3.33;1.10;;;-0.50;99.90;;;;;;2080961;28;20201;-70
2021/12/14 03:53:37;;;;;;;1.40;1.10;;;-0.50;99.90;;;;;;2082137;28;20185;-71
2021/12/14 03:54:39;;;;;;;1.73;1.00;;;-0.40;99.90;;;;;;2088838;28;20224;-70
2021/12/14 03:55:46;;;;;;;1.23;0.90;;;-0.40;99.90;;;;;;2089143;28;20221;-71
2021/12/14 03:56:49;;;;;;;0.90;0.70;;;-0.40;99.90;;;;;;2088991;28;20169;-71
2021/12/14 03:57:51;;;;;;;1.60;0.77;;;-0.40;99.90;;;;;;2088927;28;20183;-70
2021/12/14 03:58:52;;;;;;;0.88;0.68;;;-0.40;99.90;;;;;;2089082;28;20686;-71
2021/12/14 03:59:53;;;;;;;1.25;0.60;;;-0.50;99.90;;;;;;2088987;28;20613;-71
2021/12/14 04:01:08;;;;;;;0.50;0.40;;;-0.50;99.90;;;;;;2089041;28;20181;-71
2021/12/14 04:02:12;;;;;;;0.98;0.40;;;-0.50;99.90;;;;;;2088991;28;20169;-71
2021/12/14 04:03:15;;;;;;;0.60;0.38;;;-0.50;99.90;;;;;;2089034;28;20549;-71
2021/12/14 04:04:23;;;;;;;0.20;0.20;;;-0.60;99.90;;;;;;2088758;28;20601;-70
2021/12/14 04:05:24;;;;;;;1.08;0.45;;;-0.60;99.90;;;;;;2089057;28;20183;-71
2021/12/14 04:06:27;;;;;;;0.63;0.52;;;-0.50;99.90;;;;;;2088803;28;20208;-70
2021/12/14 04:07:28;;;;;;;0.40;0.40;;;-0.60;99.90;;;;;;2080650;28;20185;-70
2021/12/14 04:08:30;;;;;;;0.43;0.40;;;-0.60;99.90;;;;;;2088199;28;20592;-71
2021/12/14 04:09:35;;;;;;;1.25;0.40;;;-0.60;99.90;;;;;;2089701;28;20199;-70
2021/12/14 04:10:38;;;;;;;0.98;0.32;;;-0.60;99.90;;;;;;2088807;28;20195;-71
2021/12/14 04:11:39;;;;;;;3.55;0.60;;;-0.60;99.90;;;;;;2081203;28;20216;-72
2021/12/14 04:12:40;;;;;;;0.45;0.45;;;-0.60;99.90;;;;;;2080813;28;20196;-71
2021/12/14 04:13:48;;;;;;;0.40;0.30;;;-0.60;99.90;;;;;;2080712;28;20227;-71
2021/12/14 04:14:55;;;;;;;0.63;0.43;;;-0.60;99.90;;;;;;2081419;28;20184;-71
2021/12/14 04:15:56;;;;;;;3.35;0.60;;;-0.60;99.90;;;;;;2081582;28;20191;-70
2021/12/14 04:17:00;;;;;;;0.77;0.60;;;-0.50;99.90;;;;;;2080450;28;20189;-70
2021/12/14 04:18:00;;;;;;;1.10;0.63;;;-0.40;99.90;;;;;;2080824;28;20712;-69
2021/12/14 04:19:11;;;;;;;1.00;0.60;;;-0.40;99.90;;;;;;2080684;28;20185;-69
2021/12/14 04:20:24;;;;;;;0.57;0.50;;;-0.30;99.90;;;;;;2088980;28;20196;-69
2021/12/14 04:21:25;;;;;;;0.52;0.52;;;-0.30;99.90;;;;;;2088781;28;20663;-69
2021/12/14 04:22:30;;;;;;;1.87;0.90;;;-0.20;99.90;;;;;;2088775;28;20204;-68
2021/12/14 04:23:39;;;;;;;2.65;1.00;;;-0.20;99.90;;;;;;2089032;28;20173;-69
2021/12/14 04:24:41;;;;;;;1.63;1.00;;;-0.10;99.90;;;;;;2088670;28;20243;-69
2021/12/14 04:25:43;;;;;;;1.33;1.00;;;-0.10;99.90;;;;;;2089367;28;20242;-69
2021/12/14 04:26:46;;;;;;;4.15;1.00;;;-0.10;99.90;;;;;;2088618;28;20586;-69
2021/12/14 04:27:50;;;;;;;1.08;0.77;;;-0.10;99.90;;;;;;2088653;28;20263;-69
2021/12/14 04:28:55;;;;;;;0.60;0.60;;;-0.10;99.90;;;;;;2088604;28;20185;-69
2021/12/14 04:29:59;;;;;;;1.35;0.65;;;-0.10;99.90;;;;;;2088854;28;20164;-68
2021/12/14 04:31:00;;;;;;;1.55;0.65;;;-0.20;99.90;;;;;;2089241;28;20274;-68
2021/12/14 04:32:02;;;;;;;0.70;0.60;;;-0.20;99.90;;;;;;2088846;28;20183;-69
2021/12/14 04:33:10;;;;;;;0.68;0.60;;;-0.20;99.90;;;;;;2080715;28;20227;-69
2021/12/14 04:34:14;;;;;;;0.80;0.60;;;-0.30;99.90;;;;;;2081458;28;20189;-69
2021/12/14 04:35:15;;;;;;;0.60;0.60;;;-0.30;99.90;;;;;;2088545;28;20202;-69
2021/12/14 04:36:20;;;;;;;0.50;0.50;;;-0.40;99.90;;;;;;2088702;28;20554;-68
2021/12/14 04:37:22;;;;;;;0.50;0.40;;;-0.40;99.90;;;;;;2088790;28;20177;-69
2021/12/14 04:38:29;;;;;;;0.40;0.40;;;-0.40;99.90;;;;;;2088742;28;20720;-69
2021/12/14 04:39:39;;;;;;;1.15;0.50;;;-0.50;99.90;;;;;;2088739;28;20211;-69
2021/12/14 04:53:10;;;;;;;9.07;3.20;;;-0.50;99.90;;;;;;2088165;28;20188;-70
2021/12/14 04:54:11;;;;;;;10.98;3.63;;;-0.40;99.90;;;;;;2079937;28;20639;-70
2021/12/14 04:55:11;;;;;;;7.10;3.30;;;-0.40;99.90;;;;;;2082694;28;20231;-70
2021/12/14 04:56:21;;;;;;;8.23;3.40;;;-0.40;99.90;;;;;;2088529;28;20238;-69
2021/12/14 04:57:32;;;;;;;4.28;2.45;;;-0.30;99.90;;;;;;2089234;28;20175;-70
2021/12/14 04:59:07;;;;;;;4.68;2.63;;;-0.30;99.90;;;;;;2088535;28;20200;-70
2021/12/14 05:00:27;;;;;;;12.80;3.55;;;-0.30;99.90;;;;;;2088513;28;20649;-70
2021/12/14 05:01:28;;;;;;;7.25;3.65;;;-0.20;99.90;;;;;;2088626;28;20175;-70
2021/12/14 05:02:32;;;;;;;4.43;2.90;;;-0.10;99.90;;;;;;2080323;28;20259;-70
2021/12/14 05:03:50;;;;;;;4.82;2.80;;;-0.10;99.90;;;;;;2080987;28;20189;-70
2021/12/14 05:04:54;;;;;;;7.10;2.60;;;-0.10;99.90;;;;;;2088610;28;20160;-70
2021/12/14 05:06:09;;;;;;;4.07;2.80;;;0.00;99.90;;;;;;2089085;28;21044;-70
2021/12/14 05:09:36;;;;;;;2.75;2.08;;;0.00;99.90;;;;;;2088620;28;20180;-70
2021/12/14 05:11:04;;;;;;;5.22;2.80;;;0.00;99.90;;;;;;2088604;28;20167;-70
2021/12/14 05:12:20;;;;;;;6.75;3.40;;;-0.10;99.90;;;;;;2088442;28;20177;-70
2021/12/14 05:13:34;;;;;;;6.53;3.25;;;-0.10;99.90;;;;;;2088684;28;20606;-70
2021/12/14 05:14:38;;;;;;;12.27;4.30;;;-0.10;99.90;;;;;;2088306;28;20200;-70
2021/12/14 05:15:41;;;;;;;6.78;4.38;;;-0.10;99.90;;;;;;2088574;28;20180;-70
2021/12/14 05:16:42;;;;;;;7.45;3.65;;;-0.10;99.90;;;;;;2088496;28;20223;-70
2021/12/14 05:17:46;;;;;;;6.00;3.90;;;-0.10;99.90;;;;;;2088340;28;20226;-70
2021/12/14 05:18:50;;;;;;;5.35;3.20;;;-0.10;99.90;;;;;;2088648;28;20532;-70
2021/12/14 05:19:52;;;;;;;5.18;3.08;;;-0.20;99.90;;;;;;2082039;28;20243;-70
2021/12/14 05:20:53;;;;;;;5.00;3.17;;;-0.20;99.90;;;;;;2090008;28;20592;-69
2021/12/14 05:22:06;;;;;;;7.87;2.00;;;-0.20;99.90;;;;;;2090679;28;20212;-70
2021/12/14 05:23:06;;;;;;;3.92;2.65;;;-0.20;99.90;;;;;;2090633;28;20164;-70
2021/12/14 05:24:11;;;;;;;12.10;2.40;;;-0.10;99.90;;;;;;2090712;28;20646;-70
2021/12/14 05:25:26;;;;;;;13.73;3.25;;;-0.10;99.90;;;;;;2090479;28;20566;-70
2021/12/14 05:26:27;;;;;;;6.38;1.95;;;-0.10;99.90;;;;;;2089747;28;20669;-70
2021/12/14 05:28:00;;;;;;;7.82;2.00;;;-0.10;99.90;;;;;;2090068;28;20238;-70
2021/12/14 05:29:02;;;;;;;4.60;2.60;;;0.00;99.90;;;;;;2089596;28;20188;-70
2021/12/14 05:30:25;;;;;;;5.03;2.45;;;0.00;99.90;;;;;;2090527;28;20179;-70
2021/12/14 05:31:26;;;;;;;3.88;2.30;;;0.10;99.90;;;;;;2089974;28;20564;-70
2021/12/14 05:32:27;;;;;;;3.90;2.47;;;0.20;99.90;;;;;;2090077;28;20185;-70
2021/12/14 05:33:33;;;;;;;5.07;2.83;;;0.30;99.90;;;;;;2090539;28;20184;-70
2021/12/14 05:34:36;;;;;;;3.58;2.15;;;0.30;99.90;;;;;;2090514;28;20193;-70
2021/12/14 05:35:38;;;;;;;5.63;2.67;;;0.40;99.90;;;;;;2090618;28;20172;-70
2021/12/14 05:36:41;;;;;;;5.47;2.35;;;0.40;99.90;;;;;;2090624;28;20219;-70
2021/12/14 05:37:48;;;;;;;4.88;2.80;;;0.40;99.90;;;;;;2089907;28;20701;-70
2021/12/14 05:38:57;;;;;;;7.00;2.95;;;0.40;99.90;;;;;;2090095;28;20759;-70
2021/12/14 05:40:03;;;;;;;4.57;2.45;;;0.30;99.90;;;;;;2090193;28;20165;-70
2021/12/14 05:43:05;;;;;;;12.52;3.63;;;0.30;99.90;;;;;;2090664;28;20629;-70
2021/12/14 05:43:53;;;;;;;21.08;8.48;;;0.30;99.90;;;;;;2090357;28;20270;-70
2021/12/14 05:44:53;;;;;;;22.03;8.37;;;0.20;99.90;;;;;;2089807;28;20173;-70
2021/12/14 05:46:00;;;;;;;27.20;10.07;;;0.20;99.90;;;;;;2081700;28;20177;-70
2021/12/14 05:47:13;;;;;;;20.92;8.85;;;0.10;99.90;;;;;;2074059;28;20174;-70
2021/12/14 05:48:22;;;;;;;29.35;10.75;;;0.10;99.90;;;;;;2076633;28;20204;-70
2021/12/14 05:49:26;;;;;;;45.88;12.63;;;0.10;99.90;;;;;;2082765;28;20158;-70
2021/12/14 05:50:37;;;;;;;25.83;10.05;;;0.10;99.90;;;;;;2082021;28;20260;-70
2021/12/14 05:51:38;;;;;;;32.95;10.95;;;0.10;99.90;;;;;;2082936;28;20181;-70
2021/12/14 05:52:39;;;;;;;27.27;10.07;;;0.20;99.90;;;;;;2089826;28;20243;-70
2021/12/14 05:53:45;;;;;;;27.60;9.80;;;0.10;99.90;;;;;;2090069;28;20184;-70
2021/12/14 05:54:47;;;;;;;20.02;8.15;;;0.10;99.90;;;;;;2089765;28;20648;-70
2021/12/14 05:55:48;;;;;;;20.92;8.32;;;0.10;99.90;;;;;;2081881;28;20645;-70
2021/12/14 05:56:50;;;;;;;22.77;9.13;;;0.10;99.90;;;;;;2089703;28;20226;-70
2021/12/14 05:57:57;;;;;;;19.80;8.57;;;0.10;99.90;;;;;;2090151;28;20196;-70
2021/12/14 05:59:00;;;;;;;17.23;7.13;;;0.10;99.90;;;;;;2089873;28;20169;-70
2021/12/14 06:00:02;;;;;;;18.00;7.53;;;0.10;99.90;;;;;;2081981;28;20763;-70
2021/12/14 06:01:08;;;;;;;18.38;7.10;;;0.10;99.90;;;;;;2081649;28;20243;-70
2021/12/14 06:02:10;;;;;;;19.55;7.63;;;0.00;99.90;;;;;;2082424;28;20261;-70
2021/12/14 06:03:41;;;;;;;17.73;7.20;;;0.00;99.90;;;;;;2081821;28;20177;-70
2021/12/14 06:04:47;;;;;;;17.30;7.70;;;0.00;99.90;;;;;;2085494;28;20215;-70
2021/12/14 06:05:48;;;;;;;21.10;6.88;;;-0.10;99.90;;;;;;2089820;28;20164;-70
2021/12/14 06:06:54;;;;;;;15.93;6.00;;;0.00;99.90;;;;;;2090348;28;20229;-70
2021/12/14 06:07:55;;;;;;;11.48;4.28;;;-0.10;99.90;;;;;;2090484;28;20171;-70
2021/12/14 06:09:16;;;;;;;5.47;2.67;;;-0.10;99.90;;;;;;2089911;28;20204;-70
2021/12/14 06:10:22;;;;;;;10.48;3.85;;;-0.10;99.90;;;;;;2089953;28;20164;-70
2021/12/14 06:11:25;;;;;;;6.32;3.95;;;-0.10;99.90;;;;;;2089841;28;20252;-70
2021/12/14 06:12:31;;;;;;;7.88;4.38;;;-0.10;99.90;;;;;;2082056;28;20181;-70